sensor_id;sensor_type;location;lat;lon;timestamp;temperature;humidity
9824;DHT22;4951;50.778;7.196;2022-08-01T00:00:01;22.10;1.00
9824;DHT22;4951;50.778;7.196;2022-08-01T00:02:30;22.10;1.00
9824;DHT22;4951;50.778;7.196;2022-08-01T00:04:59;22.10;1.00
9824;DHT22;4951;50.778;7.196;2022-08-01T00:07:27;22.10;1.00
9824;DHT22;4951;50.778;7.196;2022-08-01T00:09:54;22.00;1.00
9824;DHT22;4951;50.778;7.196;2022-08-01T00:12:21;22.00;1.00
9824;DHT22;4951;50.778;7.196;2022-08-01T00:14:49;22.00;1.00
9824;DHT22;4951;50.778;7.196;2022-08-01T00:17:16;22.00;1.00
9824;DHT22;4951;50.778;7.196;2022-08-01T00:19:44;22.00;1.00
9824;DHT22;4951;50.778;7.196;2022-08-01T00:22:13;22.00;1.00
9824;DHT22;4951;50.778;7.196;2022-08-01T00:24:40;21.90;1.00
9824;DHT22;4951;50.778;7.196;2022-08-01T00:27:07;21.90;1.00
9824;DHT22;4951;50.778;7.196;2022-08-01T00:29:34;21.90;1.00
9824;DHT22;4951;50.778;7.196;2022-08-01T00:32:04;21.90;1.00
9824;DHT22;4951;50.778;7.196;2022-08-01T00:34:32;21.90;1.00
9824;DHT22;4951;50.778;7.196;2022-08-01T00:36:59;21.90;1.00
9824;DHT22;4951;50.778;7.196;2022-08-01T00:39:27;21.80;1.00
9824;DHT22;4951;50.778;7.196;2022-08-01T00:41:55;21.80;1.00
9824;DHT22;4951;50.778;7.196;2022-08-01T00:44:22;21.90;1.00
9824;DHT22;4951;50.778;7.196;2022-08-01T00:46:49;21.80;1.00
9824;DHT22;4951;50.778;7.196;2022-08-01T00:49:16;21.80;1.00
9824;DHT22;4951;50.778;7.196;2022-08-01T00:51:43;21.80;1.00
9824;DHT22;4951;50.778;7.196;2022-08-01T00:54:11;21.80;1.00
9824;DHT22;4951;50.778;7.196;2022-08-01T00:56:40;21.80;1.00
9824;DHT22;4951;50.778;7.196;2022-08-01T00:59:08;21.80;1.00
9824;DHT22;4951;50.778;7.196;2022-08-01T01:01:36;21.70;1.00
9824;DHT22;4951;50.778;7.196;2022-08-01T01:04:03;21.80;1.00
9824;DHT22;4951;50.778;7.196;2022-08-01T01:06:41;21.80;1.00
9824;DHT22;4951;50.778;7.196;2022-08-01T01:09:21;21.70;1.00
9824;DHT22;4951;50.778;7.196;2022-08-01T01:12:00;21.70;1.00
9824;DHT22;4951;50.778;7.196;2022-08-01T01:14:34;21.70;1.00
9824;DHT22;4951;50.778;7.196;2022-08-01T01:17:06;21.70;1.00
9824;DHT22;4951;50.778;7.196;2022-08-01T01:19:39;21.70;1.00
9824;DHT22;4951;50.778;7.196;2022-08-01T01:22:21;21.70;1.00
9824;DHT22;4951;50.778;7.196;2022-08-01T01:25:02;21.60;1.00
9824;DHT22;4951;50.778;7.196;2022-08-01T01:27:39;21.70;1.00
9824;DHT22;4951;50.778;7.196;2022-08-01T01:30:10;21.60;1.00
9824;DHT22;4951;50.778;7.196;2022-08-01T01:32:39;21.60;1.00
9824;DHT22;4951;50.778;7.196;2022-08-01T01:35:24;21.60;1.00
9824;DHT22;4951;50.778;7.196;2022-08-01T01:37:56;21.60;1.00
9824;DHT22;4951;50.778;7.196;2022-08-01T01:40:26;21.60;1.00
9824;DHT22;4951;50.778;7.196;2022-08-01T01:42:55;21.50;1.00
9824;DHT22;4951;50.778;7.196;2022-08-01T01:45:25;21.50;1.00
9824;DHT22;4951;50.778;7.196;2022-08-01T01:47:54;21.50;1.00
9824;DHT22;4951;50.778;7.196;2022-08-01T01:50:23;21.50;1.00
9824;DHT22;4951;50.778;7.196;2022-08-01T01:52:52;21.50;1.00
9824;DHT22;4951;50.778;7.196;2022-08-01T01:55:22;21.40;1.00
9824;DHT22;4951;50.778;7.196;2022-08-01T01:57:51;21.10;1.00
9824;DHT22;4951;50.778;7.196;2022-08-01T02:00:19;20.80;1.00
9824;DHT22;4951;50.778;7.196;2022-08-01T02:02:48;20.60;1.00
9824;DHT22;4951;50.778;7.196;2022-08-01T02:05:15;20.40;1.00
9824;DHT22;4951;50.778;7.196;2022-08-01T02:07:43;20.40;1.00
9824;DHT22;4951;50.778;7.196;2022-08-01T02:10:12;20.30;1.00
9824;DHT22;4951;50.778;7.196;2022-08-01T02:12:42;20.30;1.00
9824;DHT22;4951;50.778;7.196;2022-08-01T02:15:12;20.30;1.00
9824;DHT22;4951;50.778;7.196;2022-08-01T02:17:43;20.30;1.00
9824;DHT22;4951;50.778;7.196;2022-08-01T02:20:13;20.40;1.00
9824;DHT22;4951;50.778;7.196;2022-08-01T02:22:42;20.50;1.00
9824;DHT22;4951;50.778;7.196;2022-08-01T02:25:17;20.50;1.00
9824;DHT22;4951;50.778;7.196;2022-08-01T02:27:51;20.50;1.00
9824;DHT22;4951;50.778;7.196;2022-08-01T02:30:21;20.60;1.00
9824;DHT22;4951;50.778;7.196;2022-08-01T02:32:53;20.60;1.00
9824;DHT22;4951;50.778;7.196;2022-08-01T02:35:27;20.60;1.00
9824;DHT22;4951;50.778;7.196;2022-08-01T02:37:57;20.60;1.00
9824;DHT22;4951;50.778;7.196;2022-08-01T02:40:27;20.60;1.00
9824;DHT22;4951;50.778;7.196;2022-08-01T02:42:56;20.60;1.00
9824;DHT22;4951;50.778;7.196;2022-08-01T02:45:26;20.60;1.00
9824;DHT22;4951;50.778;7.196;2022-08-01T02:47:57;20.60;1.00
9824;DHT22;4951;50.778;7.196;2022-08-01T02:50:29;20.60;1.00
9824;DHT22;4951;50.778;7.196;2022-08-01T02:52:59;20.60;1.00
9824;DHT22;4951;50.778;7.196;2022-08-01T02:55:28;20.60;1.00
9824;DHT22;4951;50.778;7.196;2022-08-01T02:57:56;20.60;1.00
9824;DHT22;4951;50.778;7.196;2022-08-01T03:00:25;20.60;1.00
9824;DHT22;4951;50.778;7.196;2022-08-01T03:02:53;20.60;1.00
9824;DHT22;4951;50.778;7.196;2022-08-01T03:05:22;20.70;1.00
9824;DHT22;4951;50.778;7.196;2022-08-01T03:07:54;20.60;1.00
9824;DHT22;4951;50.778;7.196;2022-08-01T03:10:23;20.60;1.00
9824;DHT22;4951;50.778;7.196;2022-08-01T03:12:51;20.60;1.00
9824;DHT22;4951;50.778;7.196;2022-08-01T03:15:19;20.70;1.00
9824;DHT22;4951;50.778;7.196;2022-08-01T03:17:49;20.70;1.00
9824;DHT22;4951;50.778;7.196;2022-08-01T03:20:18;20.70;1.00
9824;DHT22;4951;50.778;7.196;2022-08-01T03:22:49;20.70;1.00
9824;DHT22;4951;50.778;7.196;2022-08-01T03:25:20;20.70;1.00
9824;DHT22;4951;50.778;7.196;2022-08-01T03:27:54;20.70;1.00
9824;DHT22;4951;50.778;7.196;2022-08-01T03:30:23;20.70;1.00
9824;DHT22;4951;50.778;7.196;2022-08-01T03:32:52;20.70;1.00
9824;DHT22;4951;50.778;7.196;2022-08-01T03:35:19;20.70;1.00
9824;DHT22;4951;50.778;7.196;2022-08-01T03:37:50;20.70;1.00
9824;DHT22;4951;50.778;7.196;2022-08-01T03:40:23;20.70;1.00
9824;DHT22;4951;50.778;7.196;2022-08-01T03:42:55;20.70;1.00
9824;DHT22;4951;50.778;7.196;2022-08-01T03:45:25;20.60;1.00
9824;DHT22;4951;50.778;7.196;2022-08-01T03:47:58;20.60;1.00
9824;DHT22;4951;50.778;7.196;2022-08-01T03:50:27;20.60;1.00
9824;DHT22;4951;50.778;7.196;2022-08-01T03:52:57;20.60;1.00
9824;DHT22;4951;50.778;7.196;2022-08-01T03:55:27;20.60;1.00
9824;DHT22;4951;50.778;7.196;2022-08-01T03:57:55;20.60;1.00
9824;DHT22;4951;50.778;7.196;2022-08-01T04:00:24;20.60;1.00
9824;DHT22;4951;50.778;7.196;2022-08-01T04:02:52;20.60;1.00
9824;DHT22;4951;50.778;7.196;2022-08-01T04:05:20;20.60;1.00
9824;DHT22;4951;50.778;7.196;2022-08-01T04:07:49;20.60;1.00
9824;DHT22;4951;50.778;7.196;2022-08-01T04:10:21;20.60;1.00
9824;DHT22;4951;50.778;7.196;2022-08-01T04:12:50;20.60;1.00
9824;DHT22;4951;50.778;7.196;2022-08-01T04:15:17;20.70;1.00
9824;DHT22;4951;50.778;7.196;2022-08-01T04:17:46;20.70;1.00
9824;DHT22;4951;50.778;7.196;2022-08-01T04:20:14;20.70;1.00
9824;DHT22;4951;50.778;7.196;2022-08-01T04:22:43;20.70;1.00
9824;DHT22;4951;50.778;7.196;2022-08-01T04:25:14;20.70;1.00
9824;DHT22;4951;50.778;7.196;2022-08-01T04:27:46;20.60;1.00
9824;DHT22;4951;50.778;7.196;2022-08-01T04:30:16;20.60;1.00
9824;DHT22;4951;50.778;7.196;2022-08-01T04:32:46;20.60;1.00
9824;DHT22;4951;50.778;7.196;2022-08-01T04:35:17;20.60;1.00
9824;DHT22;4951;50.778;7.196;2022-08-01T04:37:48;20.60;1.00
9824;DHT22;4951;50.778;7.196;2022-08-01T04:40:17;20.60;1.00
9824;DHT22;4951;50.778;7.196;2022-08-01T04:42:45;20.60;1.00
9824;DHT22;4951;50.778;7.196;2022-08-01T04:45:16;20.60;1.00
9824;DHT22;4951;50.778;7.196;2022-08-01T04:47:46;20.70;1.00
9824;DHT22;4951;50.778;7.196;2022-08-01T04:50:14;20.70;1.00
9824;DHT22;4951;50.778;7.196;2022-08-01T04:52:45;20.60;1.00
9824;DHT22;4951;50.778;7.196;2022-08-01T04:55:17;20.70;1.00
9824;DHT22;4951;50.778;7.196;2022-08-01T04:57:46;20.70;1.00
9824;DHT22;4951;50.778;7.196;2022-08-01T05:00:16;20.70;1.00
9824;DHT22;4951;50.778;7.196;2022-08-01T05:02:43;20.70;1.00
9824;DHT22;4951;50.778;7.196;2022-08-01T05:05:11;20.70;1.00
9824;DHT22;4951;50.778;7.196;2022-08-01T05:07:38;20.70;1.00
9824;DHT22;4951;50.778;7.196;2022-08-01T05:10:06;20.70;1.00
9824;DHT22;4951;50.778;7.196;2022-08-01T05:12:34;20.70;1.00
9824;DHT22;4951;50.778;7.196;2022-08-01T05:15:01;20.70;1.00
9824;DHT22;4951;50.778;7.196;2022-08-01T05:17:31;20.70;1.00
9824;DHT22;4951;50.778;7.196;2022-08-01T05:19:58;20.80;1.00
9824;DHT22;4951;50.778;7.196;2022-08-01T05:22:27;20.80;1.00
9824;DHT22;4951;50.778;7.196;2022-08-01T05:24:54;20.70;1.00
9824;DHT22;4951;50.778;7.196;2022-08-01T05:27:21;20.80;1.00
9824;DHT22;4951;50.778;7.196;2022-08-01T05:29:49;20.80;1.00
9824;DHT22;4951;50.778;7.196;2022-08-01T05:32:16;20.80;1.00
9824;DHT22;4951;50.778;7.196;2022-08-01T05:34:44;20.80;1.00
9824;DHT22;4951;50.778;7.196;2022-08-01T05:37:11;20.90;1.00
9824;DHT22;4951;50.778;7.196;2022-08-01T05:39:39;20.90;1.00
9824;DHT22;4951;50.778;7.196;2022-08-01T05:42:06;20.90;1.00
9824;DHT22;4951;50.778;7.196;2022-08-01T05:44:33;20.90;1.00
9824;DHT22;4951;50.778;7.196;2022-08-01T05:47:00;20.90;1.00
9824;DHT22;4951;50.778;7.196;2022-08-01T05:49:28;20.90;1.00
9824;DHT22;4951;50.778;7.196;2022-08-01T05:51:57;20.90;1.00
9824;DHT22;4951;50.778;7.196;2022-08-01T05:54:24;20.90;1.00
9824;DHT22;4951;50.778;7.196;2022-08-01T05:56:51;20.90;1.00
9824;DHT22;4951;50.778;7.196;2022-08-01T05:59:19;21.00;1.00
9824;DHT22;4951;50.778;7.196;2022-08-01T06:01:47;20.90;1.00
9824;DHT22;4951;50.778;7.196;2022-08-01T06:04:14;21.00;1.00
9824;DHT22;4951;50.778;7.196;2022-08-01T06:06:42;21.00;1.00
9824;DHT22;4951;50.778;7.196;2022-08-01T06:09:10;21.00;1.00
9824;DHT22;4951;50.778;7.196;2022-08-01T06:11:37;21.10;1.00
9824;DHT22;4951;50.778;7.196;2022-08-01T06:14:07;21.10;1.00
9824;DHT22;4951;50.778;7.196;2022-08-01T06:16:35;21.10;1.00
9824;DHT22;4951;50.778;7.196;2022-08-01T06:19:02;21.10;1.00
9824;DHT22;4951;50.778;7.196;2022-08-01T06:21:30;21.10;1.00
9824;DHT22;4951;50.778;7.196;2022-08-01T06:23:58;21.20;1.00
9824;DHT22;4951;50.778;7.196;2022-08-01T06:26:28;21.20;1.00
9824;DHT22;4951;50.778;7.196;2022-08-01T06:28:55;21.20;1.00
9824;DHT22;4951;50.778;7.196;2022-08-01T06:31:23;21.30;1.00
9824;DHT22;4951;50.778;7.196;2022-08-01T06:33:50;21.40;1.00
9824;DHT22;4951;50.778;7.196;2022-08-01T06:36:17;21.60;1.00
9824;DHT22;4951;50.778;7.196;2022-08-01T06:38:45;21.60;1.00
9824;DHT22;4951;50.778;7.196;2022-08-01T06:41:12;21.60;1.00
9824;DHT22;4951;50.778;7.196;2022-08-01T06:43:41;21.60;1.00
9824;DHT22;4951;50.778;7.196;2022-08-01T06:46:09;21.60;1.00
9824;DHT22;4951;50.778;7.196;2022-08-01T06:48:36;21.70;1.00
9824;DHT22;4951;50.778;7.196;2022-08-01T06:51:05;21.70;1.00
9824;DHT22;4951;50.778;7.196;2022-08-01T06:53:37;21.70;1.00
9824;DHT22;4951;50.778;7.196;2022-08-01T06:56:18;21.60;1.00
9824;DHT22;4951;50.778;7.196;2022-08-01T06:58:50;21.60;1.00
9824;DHT22;4951;50.778;7.196;2022-08-01T07:01:18;21.60;1.00
9824;DHT22;4951;50.778;7.196;2022-08-01T07:03:46;21.70;1.00
9824;DHT22;4951;50.778;7.196;2022-08-01T07:06:13;21.80;1.00
9824;DHT22;4951;50.778;7.196;2022-08-01T07:08:41;21.80;1.00
9824;DHT22;4951;50.778;7.196;2022-08-01T07:11:08;22.00;1.00
9824;DHT22;4951;50.778;7.196;2022-08-01T07:13:36;22.00;1.00
9824;DHT22;4951;50.778;7.196;2022-08-01T07:16:05;22.10;1.00
9824;DHT22;4951;50.778;7.196;2022-08-01T07:18:32;22.10;1.00
9824;DHT22;4951;50.778;7.196;2022-08-01T07:21:00;22.10;1.00
9824;DHT22;4951;50.778;7.196;2022-08-01T07:23:30;22.10;1.00
9824;DHT22;4951;50.778;7.196;2022-08-01T07:25:57;22.10;1.00
9824;DHT22;4951;50.778;7.196;2022-08-01T07:28:27;22.20;1.00
9824;DHT22;4951;50.778;7.196;2022-08-01T07:30:54;22.20;1.00
9824;DHT22;4951;50.778;7.196;2022-08-01T07:33:24;22.40;1.00
9824;DHT22;4951;50.778;7.196;2022-08-01T07:35:51;22.50;1.00
9824;DHT22;4951;50.778;7.196;2022-08-01T07:38:18;22.50;1.00
9824;DHT22;4951;50.778;7.196;2022-08-01T07:40:48;22.70;1.00
9824;DHT22;4951;50.778;7.196;2022-08-01T07:43:15;22.70;1.00
9824;DHT22;4951;50.778;7.196;2022-08-01T07:45:42;22.80;1.00
9824;DHT22;4951;50.778;7.196;2022-08-01T07:48:10;22.80;1.00
9824;DHT22;4951;50.778;7.196;2022-08-01T07:50:38;22.80;1.00
9824;DHT22;4951;50.778;7.196;2022-08-01T07:53:05;22.80;1.00
9824;DHT22;4951;50.778;7.196;2022-08-01T07:55:32;22.70;1.00
9824;DHT22;4951;50.778;7.196;2022-08-01T07:58:00;22.70;1.00
9824;DHT22;4951;50.778;7.196;2022-08-01T08:00:27;22.60;1.00
9824;DHT22;4951;50.778;7.196;2022-08-01T08:02:54;22.50;1.00
9824;DHT22;4951;50.778;7.196;2022-08-01T08:05:25;22.50;1.00
9824;DHT22;4951;50.778;7.196;2022-08-01T08:07:56;22.50;1.00
9824;DHT22;4951;50.778;7.196;2022-08-01T08:10:26;22.60;1.00
9824;DHT22;4951;50.778;7.196;2022-08-01T08:12:54;22.50;1.00
9824;DHT22;4951;50.778;7.196;2022-08-01T08:15:21;22.50;1.00
9824;DHT22;4951;50.778;7.196;2022-08-01T08:17:50;22.50;1.00
9824;DHT22;4951;50.778;7.196;2022-08-01T08:20:17;22.50;1.00
9824;DHT22;4951;50.778;7.196;2022-08-01T08:22:47;22.50;1.00
9824;DHT22;4951;50.778;7.196;2022-08-01T08:25:15;22.50;1.00
9824;DHT22;4951;50.778;7.196;2022-08-01T08:27:44;22.70;1.00
9824;DHT22;4951;50.778;7.196;2022-08-01T08:30:13;22.80;1.00
9824;DHT22;4951;50.778;7.196;2022-08-01T08:32:40;23.00;1.00
9824;DHT22;4951;50.778;7.196;2022-08-01T08:35:08;23.20;1.00
9824;DHT22;4951;50.778;7.196;2022-08-01T08:37:36;23.30;1.00
9824;DHT22;4951;50.778;7.196;2022-08-01T08:40:05;23.50;1.00
9824;DHT22;4951;50.778;7.196;2022-08-01T08:42:34;23.50;1.00
9824;DHT22;4951;50.778;7.196;2022-08-01T08:45:01;23.50;1.00
9824;DHT22;4951;50.778;7.196;2022-08-01T08:47:31;23.30;1.00
9824;DHT22;4951;50.778;7.196;2022-08-01T08:49:59;23.20;1.00
9824;DHT22;4951;50.778;7.196;2022-08-01T08:52:30;23.10;1.00
9824;DHT22;4951;50.778;7.196;2022-08-01T08:54:59;22.90;1.00
9824;DHT22;4951;50.778;7.196;2022-08-01T08:57:26;22.60;1.00
9824;DHT22;4951;50.778;7.196;2022-08-01T08:59:55;22.30;1.00
9824;DHT22;4951;50.778;7.196;2022-08-01T09:02:23;22.20;1.00
9824;DHT22;4951;50.778;7.196;2022-08-01T09:04:50;22.10;1.00
9824;DHT22;4951;50.778;7.196;2022-08-01T09:07:18;22.20;1.00
9824;DHT22;4951;50.778;7.196;2022-08-01T09:09:45;22.30;1.00
9824;DHT22;4951;50.778;7.196;2022-08-01T09:12:16;22.30;1.00
9824;DHT22;4951;50.778;7.196;2022-08-01T09:14:47;22.40;1.00
9824;DHT22;4951;50.778;7.196;2022-08-01T09:17:17;22.40;1.00
9824;DHT22;4951;50.778;7.196;2022-08-01T09:19:45;22.50;1.00
9824;DHT22;4951;50.778;7.196;2022-08-01T09:22:15;22.50;1.00
9824;DHT22;4951;50.778;7.196;2022-08-01T09:25:00;22.50;1.00
9824;DHT22;4951;50.778;7.196;2022-08-01T09:27:28;22.60;1.00
9824;DHT22;4951;50.778;7.196;2022-08-01T09:30:08;22.60;1.00
9824;DHT22;4951;50.778;7.196;2022-08-01T09:32:53;22.60;1.00
9824;DHT22;4951;50.778;7.196;2022-08-01T09:35:26;22.60;1.00
9824;DHT22;4951;50.778;7.196;2022-08-01T09:38:11;22.80;1.00
9824;DHT22;4951;50.778;7.196;2022-08-01T09:40:51;22.90;1.00
9824;DHT22;4951;50.778;7.196;2022-08-01T09:43:19;23.10;1.00
9824;DHT22;4951;50.778;7.196;2022-08-01T09:45:46;23.20;1.00
9824;DHT22;4951;50.778;7.196;2022-08-01T09:48:15;23.30;1.00
9824;DHT22;4951;50.778;7.196;2022-08-01T09:50:44;23.40;1.00
9824;DHT22;4951;50.778;7.196;2022-08-01T09:53:12;23.50;1.00
9824;DHT22;4951;50.778;7.196;2022-08-01T09:55:40;23.60;1.00
9824;DHT22;4951;50.778;7.196;2022-08-01T09:58:08;23.70;1.00
9824;DHT22;4951;50.778;7.196;2022-08-01T10:00:38;23.80;1.00
9824;DHT22;4951;50.778;7.196;2022-08-01T10:03:21;23.80;1.00
9824;DHT22;4951;50.778;7.196;2022-08-01T10:05:49;23.90;1.00
9824;DHT22;4951;50.778;7.196;2022-08-01T10:08:17;24.00;1.00
9824;DHT22;4951;50.778;7.196;2022-08-01T10:11:05;24.10;1.00
9824;DHT22;4951;50.778;7.196;2022-08-01T10:13:33;24.30;1.00
9824;DHT22;4951;50.778;7.196;2022-08-01T10:16:01;24.60;1.00
9824;DHT22;4951;50.778;7.196;2022-08-01T10:18:33;24.80;1.00
9824;DHT22;4951;50.778;7.196;2022-08-01T10:21:02;25.00;1.00
9824;DHT22;4951;50.778;7.196;2022-08-01T10:23:34;25.00;1.00
9824;DHT22;4951;50.778;7.196;2022-08-01T10:26:02;24.90;1.00
9824;DHT22;4951;50.778;7.196;2022-08-01T10:28:31;24.90;1.00
9824;DHT22;4951;50.778;7.196;2022-08-01T10:31:02;24.90;1.00
9824;DHT22;4951;50.778;7.196;2022-08-01T10:33:30;24.80;1.00
9824;DHT22;4951;50.778;7.196;2022-08-01T10:35:58;24.80;1.00
9824;DHT22;4951;50.778;7.196;2022-08-01T10:38:27;24.80;1.00
9824;DHT22;4951;50.778;7.196;2022-08-01T10:40:56;24.90;1.00
9824;DHT22;4951;50.778;7.196;2022-08-01T10:43:23;25.00;1.00
9824;DHT22;4951;50.778;7.196;2022-08-01T10:45:51;25.10;1.00
9824;DHT22;4951;50.778;7.196;2022-08-01T10:48:24;25.10;1.00
9824;DHT22;4951;50.778;7.196;2022-08-01T10:50:58;25.20;1.00
9824;DHT22;4951;50.778;7.196;2022-08-01T10:53:28;25.30;1.00
9824;DHT22;4951;50.778;7.196;2022-08-01T10:55:58;25.40;1.00
9824;DHT22;4951;50.778;7.196;2022-08-01T10:58:28;25.50;1.00
9824;DHT22;4951;50.778;7.196;2022-08-01T11:01:15;25.60;1.00
9824;DHT22;4951;50.778;7.196;2022-08-01T11:03:45;25.60;1.00
9824;DHT22;4951;50.778;7.196;2022-08-01T11:06:25;25.80;1.00
9824;DHT22;4951;50.778;7.196;2022-08-01T11:08:58;25.80;1.00
9824;DHT22;4951;50.778;7.196;2022-08-01T11:11:25;25.90;1.00
9824;DHT22;4951;50.778;7.196;2022-08-01T11:14:03;25.80;1.00
9824;DHT22;4951;50.778;7.196;2022-08-01T11:16:39;25.80;1.00
9824;DHT22;4951;50.778;7.196;2022-08-01T11:19:08;25.80;1.00
9824;DHT22;4951;50.778;7.196;2022-08-01T11:21:59;25.90;1.00
9824;DHT22;4951;50.778;7.196;2022-08-01T11:24:55;26.00;1.00
9824;DHT22;4951;50.778;7.196;2022-08-01T11:27:27;26.00;1.00
9824;DHT22;4951;50.778;7.196;2022-08-01T11:30:22;26.00;1.00
9824;DHT22;4951;50.778;7.196;2022-08-01T11:32:52;26.00;1.00
9824;DHT22;4951;50.778;7.196;2022-08-01T11:35:20;26.00;1.00
9824;DHT22;4951;50.778;7.196;2022-08-01T11:37:53;26.00;1.00
9824;DHT22;4951;50.778;7.196;2022-08-01T11:40:24;26.10;1.00
9824;DHT22;4951;50.778;7.196;2022-08-01T11:43:18;26.20;1.00
9824;DHT22;4951;50.778;7.196;2022-08-01T11:45:49;26.40;1.00
9824;DHT22;4951;50.778;7.196;2022-08-01T11:48:20;26.50;1.00
9824;DHT22;4951;50.778;7.196;2022-08-01T11:50:50;26.60;99.90
9824;DHT22;4951;50.778;7.196;2022-08-01T11:53:19;26.60;99.90
9824;DHT22;4951;50.778;7.196;2022-08-01T11:55:47;26.50;99.90
9824;DHT22;4951;50.778;7.196;2022-08-01T11:58:15;26.40;99.90
9824;DHT22;4951;50.778;7.196;2022-08-01T12:00:50;26.20;99.90
9824;DHT22;4951;50.778;7.196;2022-08-01T12:03:24;26.10;99.90
9824;DHT22;4951;50.778;7.196;2022-08-01T12:05:51;26.00;99.90
9824;DHT22;4951;50.778;7.196;2022-08-01T12:08:26;26.00;1.00
9824;DHT22;4951;50.778;7.196;2022-08-01T12:10:53;25.90;99.90
9824;DHT22;4951;50.778;7.196;2022-08-01T12:13:21;25.90;99.90
9824;DHT22;4951;50.778;7.196;2022-08-01T12:15:48;25.90;99.90
9824;DHT22;4951;50.778;7.196;2022-08-01T12:18:17;26.00;99.90
9824;DHT22;4951;50.778;7.196;2022-08-01T12:20:46;26.00;99.90
9824;DHT22;4951;50.778;7.196;2022-08-01T12:23:14;26.00;99.90
9824;DHT22;4951;50.778;7.196;2022-08-01T12:25:44;26.10;99.90
9824;DHT22;4951;50.778;7.196;2022-08-01T12:28:13;26.20;99.90
9824;DHT22;4951;50.778;7.196;2022-08-01T12:30:40;26.30;99.90
9824;DHT22;4951;50.778;7.196;2022-08-01T12:33:09;26.40;99.90
9824;DHT22;4951;50.778;7.196;2022-08-01T12:35:40;26.60;99.90
9824;DHT22;4951;50.778;7.196;2022-08-01T12:38:14;26.80;99.90
9824;DHT22;4951;50.778;7.196;2022-08-01T12:40:45;27.00;99.90
9824;DHT22;4951;50.778;7.196;2022-08-01T12:43:16;27.10;99.90
9824;DHT22;4951;50.778;7.196;2022-08-01T12:45:45;27.20;99.90
9824;DHT22;4951;50.778;7.196;2022-08-01T12:48:16;27.30;99.90
9824;DHT22;4951;50.778;7.196;2022-08-01T12:50:45;27.20;99.90
9824;DHT22;4951;50.778;7.196;2022-08-01T12:53:12;27.00;99.90
9824;DHT22;4951;50.778;7.196;2022-08-01T12:55:46;26.90;99.90
9824;DHT22;4951;50.778;7.196;2022-08-01T12:58:15;26.80;99.90
9824;DHT22;4951;50.778;7.196;2022-08-01T13:00:45;26.70;99.90
9824;DHT22;4951;50.778;7.196;2022-08-01T13:03:14;26.60;99.90
9824;DHT22;4951;50.778;7.196;2022-08-01T13:05:43;26.40;99.90
9824;DHT22;4951;50.778;7.196;2022-08-01T13:08:12;26.30;99.90
9824;DHT22;4951;50.778;7.196;2022-08-01T13:10:40;26.50;99.90
9824;DHT22;4951;50.778;7.196;2022-08-01T13:13:10;26.60;99.90
9824;DHT22;4951;50.778;7.196;2022-08-01T13:15:39;26.80;99.90
9824;DHT22;4951;50.778;7.196;2022-08-01T13:18:23;26.90;99.90
9824;DHT22;4951;50.778;7.196;2022-08-01T13:21:16;27.00;99.90
9824;DHT22;4951;50.778;7.196;2022-08-01T13:24:04;27.00;99.90
9824;DHT22;4951;50.778;7.196;2022-08-01T13:26:40;26.90;99.90
9824;DHT22;4951;50.778;7.196;2022-08-01T13:33:03;27.20;99.90
9824;DHT22;4951;50.778;7.196;2022-08-01T13:35:30;27.20;99.90
9824;DHT22;4951;50.778;7.196;2022-08-01T13:37:57;27.10;99.90
9824;DHT22;4951;50.778;7.196;2022-08-01T13:40:26;26.90;99.90
9824;DHT22;4951;50.778;7.196;2022-08-01T13:42:54;26.70;99.90
9824;DHT22;4951;50.778;7.196;2022-08-01T13:45:23;26.40;99.90
9824;DHT22;4951;50.778;7.196;2022-08-01T13:47:50;26.30;99.90
9824;DHT22;4951;50.778;7.196;2022-08-01T13:50:18;26.30;99.90
9824;DHT22;4951;50.778;7.196;2022-08-01T13:52:45;26.40;99.90
9824;DHT22;4951;50.778;7.196;2022-08-01T13:55:13;26.50;99.90
9824;DHT22;4951;50.778;7.196;2022-08-01T13:57:41;26.70;99.90
9824;DHT22;4951;50.778;7.196;2022-08-01T14:00:09;26.80;99.90
9824;DHT22;4951;50.778;7.196;2022-08-01T14:02:39;26.90;99.90
9824;DHT22;4951;50.778;7.196;2022-08-01T14:05:07;27.00;99.90
9824;DHT22;4951;50.778;7.196;2022-08-01T14:07:36;27.10;99.90
9824;DHT22;4951;50.778;7.196;2022-08-01T14:10:04;27.10;99.90
9824;DHT22;4951;50.778;7.196;2022-08-01T14:12:31;27.20;99.90
9824;DHT22;4951;50.778;7.196;2022-08-01T14:14:58;27.20;99.90
9824;DHT22;4951;50.778;7.196;2022-08-01T14:17:26;27.20;99.90
9824;DHT22;4951;50.778;7.196;2022-08-01T14:19:53;27.30;99.90
9824;DHT22;4951;50.778;7.196;2022-08-01T14:22:22;27.10;99.90
9824;DHT22;4951;50.778;7.196;2022-08-01T14:24:50;27.00;99.90
9824;DHT22;4951;50.778;7.196;2022-08-01T14:27:17;26.90;99.90
9824;DHT22;4951;50.778;7.196;2022-08-01T14:29:44;26.70;99.90
9824;DHT22;4951;50.778;7.196;2022-08-01T14:32:12;26.60;99.90
9824;DHT22;4951;50.778;7.196;2022-08-01T14:34:39;26.60;99.90
9824;DHT22;4951;50.778;7.196;2022-08-01T14:37:07;26.60;99.90
9824;DHT22;4951;50.778;7.196;2022-08-01T14:39:34;26.80;99.90
9824;DHT22;4951;50.778;7.196;2022-08-01T14:42:03;27.10;99.90
9824;DHT22;4951;50.778;7.196;2022-08-01T14:44:30;27.20;99.90
9824;DHT22;4951;50.778;7.196;2022-08-01T14:46:57;27.30;99.90
9824;DHT22;4951;50.778;7.196;2022-08-01T14:49:25;27.40;99.90
9824;DHT22;4951;50.778;7.196;2022-08-01T14:51:52;27.40;99.90
9824;DHT22;4951;50.778;7.196;2022-08-01T14:54:19;27.60;99.90
9824;DHT22;4951;50.778;7.196;2022-08-01T14:56:46;27.70;99.90
9824;DHT22;4951;50.778;7.196;2022-08-01T14:59:14;27.70;99.90
9824;DHT22;4951;50.778;7.196;2022-08-01T15:01:42;27.70;99.90
9824;DHT22;4951;50.778;7.196;2022-08-01T15:04:09;27.70;99.90
9824;DHT22;4951;50.778;7.196;2022-08-01T15:06:36;27.80;99.90
9824;DHT22;4951;50.778;7.196;2022-08-01T15:09:03;27.80;99.90
9824;DHT22;4951;50.778;7.196;2022-08-01T15:11:31;27.90;99.90
9824;DHT22;4951;50.778;7.196;2022-08-01T15:13:58;27.90;99.90
9824;DHT22;4951;50.778;7.196;2022-08-01T15:16:44;27.90;99.90
9824;DHT22;4951;50.778;7.196;2022-08-01T15:19:11;28.00;99.90
9824;DHT22;4951;50.778;7.196;2022-08-01T15:21:38;28.10;99.90
9824;DHT22;4951;50.778;7.196;2022-08-01T15:24:06;28.10;99.90
9824;DHT22;4951;50.778;7.196;2022-08-01T15:26:34;28.10;99.90
9824;DHT22;4951;50.778;7.196;2022-08-01T15:29:02;28.20;99.90
9824;DHT22;4951;50.778;7.196;2022-08-01T15:31:29;28.40;99.90
9824;DHT22;4951;50.778;7.196;2022-08-01T15:33:59;28.80;99.90
9824;DHT22;4951;50.778;7.196;2022-08-01T15:36:26;29.20;99.90
9824;DHT22;4951;50.778;7.196;2022-08-01T15:38:53;29.30;99.90
9824;DHT22;4951;50.778;7.196;2022-08-01T15:41:21;29.40;99.90
9824;DHT22;4951;50.778;7.196;2022-08-01T15:43:48;29.70;99.90
9824;DHT22;4951;50.778;7.196;2022-08-01T15:46:15;30.00;99.90
9824;DHT22;4951;50.778;7.196;2022-08-01T15:48:42;29.90;99.90
9824;DHT22;4951;50.778;7.196;2022-08-01T15:51:11;29.80;99.90
9824;DHT22;4951;50.778;7.196;2022-08-01T15:53:38;29.50;99.90
9824;DHT22;4951;50.778;7.196;2022-08-01T15:56:05;29.20;99.90
9824;DHT22;4951;50.778;7.196;2022-08-01T15:58:33;28.90;99.90
9824;DHT22;4951;50.778;7.196;2022-08-01T16:01:00;28.50;99.90
9824;DHT22;4951;50.778;7.196;2022-08-01T16:03:27;28.20;99.90
9824;DHT22;4951;50.778;7.196;2022-08-01T16:05:54;28.00;99.90
9824;DHT22;4951;50.778;7.196;2022-08-01T16:08:23;27.80;99.90
9824;DHT22;4951;50.778;7.196;2022-08-01T16:10:50;27.60;99.90
9824;DHT22;4951;50.778;7.196;2022-08-01T16:13:17;27.50;99.90
9824;DHT22;4951;50.778;7.196;2022-08-01T16:15:44;27.40;99.90
9824;DHT22;4951;50.778;7.196;2022-08-01T16:18:11;27.30;99.90
9824;DHT22;4951;50.778;7.196;2022-08-01T16:20:39;27.10;99.90
9824;DHT22;4951;50.778;7.196;2022-08-01T16:23:07;27.00;99.90
9824;DHT22;4951;50.778;7.196;2022-08-01T16:25:35;26.90;99.90
9824;DHT22;4951;50.778;7.196;2022-08-01T16:28:03;26.90;99.90
9824;DHT22;4951;50.778;7.196;2022-08-01T16:30:30;27.00;99.90